Time;durP1;ratioP1;P1;durP2;ratioP2;P2;SDS_P1;SDS_P2;PMS_P1;PMS_P2;Temp;Humidity;BMP_temperature;BMP_pressure;BME280_temperature;BME280_humidity;BME280_pressure;Samples;Min_cycle;Max_cycle;Signal;HPM_P1;HPM_P2
2022/01/13 00:00:35;;;;;;;6.73;5.17;;;;;;;-1.83;82.94;98398.56;5057121;28;20209;-70
2022/01/13 00:03:02;;;;;;;5.83;3.53;;;;;;;-2.12;83.56;98404.69;5055923;28;20298;-71
2022/01/13 00:05:30;;;;;;;14.40;5.57;;;;;;;-2.10;82.80;98399.47;5056446;28;20716;-70
2022/01/13 00:07:58;;;;;;;7.47;4.70;;;;;;;-1.91;82.57;98400.56;5056785;28;20207;-70
2022/01/13 00:10:25;;;;;;;6.93;5.20;;;;;;;-1.93;83.17;98403.22;5056423;28;20204;-71
2022/01/13 00:12:57;;;;;;;14.17;5.20;;;;;;;-1.89;82.51;98399.63;5055848;28;20227;-70
2022/01/13 00:15:38;;;;;;;10.80;5.20;;;;;;;-1.85;81.35;98405.53;5056835;28;20909;-71
2022/01/13 00:18:10;;;;;;;11.43;5.77;;;;;;;-1.97;81.17;98409.38;5056015;28;20203;-71
2022/01/13 00:21:00;;;;;;;12.83;4.80;;;;;;;-2.02;81.43;98403.50;5056394;28;20214;-70
2022/01/13 00:23:42;;;;;;;4.30;3.83;;;;;;;-2.08;82.22;98406.28;5055700;28;20252;-70
2022/01/13 00:26:16;;;;;;;6.20;4.27;;;;;;;-1.88;81.63;98405.63;5056870;28;20228;-70
2022/01/13 00:28:45;;;;;;;7.67;4.50;;;;;;;-2.14;82.27;98403.91;5056480;28;21068;-71
2022/01/13 00:31:16;;;;;;;3.23;2.93;;;;;;;-2.05;82.70;98410.50;5056402;28;20207;-71
2022/01/13 00:33:45;;;;;;;7.67;4.10;;;;;;;-2.15;82.96;98409.97;5055509;28;20227;-71
2022/01/13 00:36:12;;;;;;;9.70;5.13;;;;;;;-2.12;81.83;98415.00;5056358;28;20258;-71
2022/01/13 00:38:39;;;;;;;11.40;5.37;;;;;;;-2.09;81.75;98421.81;5057480;28;20214;-70
2022/01/13 00:41:06;;;;;;;6.03;3.83;;;;;;;-2.31;82.68;98425.97;5056708;28;20345;-69
2022/01/13 00:43:36;;;;;;;5.70;4.50;;;;;;;-2.22;83.36;98421.34;5056160;28;20231;-68
2022/01/13 00:46:03;;;;;;;9.33;5.03;;;;;;;-2.20;83.80;98431.63;5057258;28;20264;-69
2022/01/13 00:48:31;;;;;;;13.97;7.40;;;;;;;-2.15;83.73;98435.78;5056849;28;20953;-68
2022/01/13 00:50:57;;;;;;;12.47;4.33;;;;;;;-2.28;82.99;98441.34;5056789;28;20691;-69
2022/01/13 00:53:24;;;;;;;12.20;5.67;;;;;;;-2.20;80.96;98437.66;5055947;28;20232;-69
2022/01/13 00:55:58;;;;;;;7.83;3.53;;;;;;;-2.24;82.10;98427.47;5058463;28;20251;-69
2022/01/13 00:58:25;;;;;;;6.87;4.60;;;;;;;-2.14;82.52;98434.91;5060283;28;20299;-69
2022/01/13 01:00:52;;;;;;;14.30;5.10;;;;;;;-2.22;81.97;98436.84;5059901;28;20204;-69
2022/01/13 01:03:18;;;;;;;12.63;5.87;;;;;;;-2.33;81.00;98440.66;5059932;28;20216;-68
2022/01/13 01:05:46;;;;;;;9.40;4.60;;;;;;;-2.23;80.76;98442.06;5059409;28;20228;-69
2022/01/13 01:08:13;;;;;;;10.97;5.10;;;;;;;-2.42;81.78;98437.50;5059682;28;20211;-68
2022/01/13 01:10:40;;;;;;;7.83;5.93;;;;;;;-2.45;83.00;98432.44;5060290;28;20216;-69
2022/01/13 01:13:12;;;;;;;7.93;5.37;;;;;;;-2.26;82.75;98445.59;5058695;28;20220;-68
2022/01/13 01:15:42;;;;;;;8.40;4.63;;;;;;;-2.37;81.84;98441.63;5059845;28;20328;-69
2022/01/13 01:18:19;;;;;;;4.53;3.13;;;;;;;-2.25;80.97;98443.88;5060001;28;20208;-70
2022/01/13 01:21:01;;;;;;;3.30;3.00;;;;;;;-2.19;81.57;98441.06;5060033;28;20555;-70
2022/01/13 01:23:28;;;;;;;6.00;4.57;;;;;;;-2.25;81.53;98442.13;5059208;28;20204;-69
2022/01/13 01:26:04;;;;;;;8.10;4.23;;;;;;;-2.28;81.88;98451.69;5059716;28;20223;-69
2022/01/13 01:28:40;;;;;;;6.40;4.30;;;;;;;-2.28;81.40;98457.72;5060008;28;20211;-69
2022/01/13 01:31:07;;;;;;;8.03;5.13;;;;;;;-2.25;81.29;98467.09;5059728;28;20679;-69
2022/01/13 01:33:35;;;;;;;7.87;5.43;;;;;;;-2.22;81.34;98456.66;5058925;28;20652;-69
2022/01/13 01:36:04;;;;;;;10.63;5.23;;;;;;;-2.10;81.35;98453.69;5059148;28;20352;-69
2022/01/13 01:38:31;;;;;;;5.53;4.47;;;;;;;-2.38;81.91;98455.44;5059846;28;20217;-68
2022/01/13 01:40:58;;;;;;;19.77;6.47;;;;;;;-2.49;81.28;98451.50;5059686;28;20687;-68
2022/01/13 01:43:26;;;;;;;4.27;3.90;;;;;;;-2.31;81.26;98462.94;5058111;28;20218;-69
2022/01/13 01:45:54;;;;;;;4.63;3.70;;;;;;;-2.25;81.42;98462.78;5059247;28;20308;-69
2022/01/13 01:48:21;;;;;;;12.10;5.73;;;;;;;-2.42;81.95;98464.16;5060501;28;20208;-69
2022/01/13 01:50:55;;;;;;;5.60;4.83;;;;;;;-2.41;81.73;98466.72;5059807;28;20298;-68
2022/01/13 01:53:23;;;;;;;10.03;5.00;;;;;;;-2.25;81.63;98467.94;5058351;28;20223;-69
2022/01/13 01:55:50;;;;;;;9.03;5.70;;;;;;;-2.34;82.22;98465.63;5059807;28;21446;-69
2022/01/13 01:58:16;;;;;;;17.27;4.67;;;;;;;-2.28;82.13;98460.28;5059286;28;20212;-69
2022/01/13 02:00:43;;;;;;;4.83;4.23;;;;;;;-2.29;82.02;98456.00;5059382;28;20196;-69
2022/01/13 02:03:10;;;;;;;9.03;3.27;;;;;;;-2.33;81.26;98454.41;5058289;28;20207;-69
2022/01/13 02:05:37;;;;;;;5.63;3.87;;;;;;;-2.40;81.27;98463.22;5059305;28;20232;-69
2022/01/13 02:08:05;;;;;;;10.13;6.63;;;;;;;-2.32;80.94;98460.41;5057375;28;20212;-69
2022/01/13 02:10:33;;;;;;;13.30;6.97;;;;;;;-2.30;81.48;98456.91;5058728;28;20206;-69
2022/01/13 02:13:05;;;;;;;12.43;3.73;;;;;;;-2.22;80.92;98457.50;5058103;28;20239;-68
2022/01/13 02:15:35;;;;;;;4.83;3.90;;;;;;;-2.25;80.63;98452.44;5059128;28;21005;-69
2022/01/13 02:18:05;;;;;;;8.77;3.80;;;;;;;-2.28;81.85;98462.00;5058798;28;20202;-69
2022/01/13 02:20:45;;;;;;;6.80;4.47;;;;;;;-2.30;82.48;98467.22;5059449;28;20203;-69
2022/01/13 02:23:12;;;;;;;4.63;3.87;;;;;;;-2.47;81.15;98467.78;5057455;28;20210;-69
2022/01/13 02:25:38;;;;;;;5.87;3.87;;;;;;;-2.38;81.91;98465.75;5059135;28;20222;-68
2022/01/13 02:28:05;;;;;;;9.53;5.33;;;;;;;-2.50;82.27;98455.81;5058150;28;20703;-69
2022/01/13 02:30:32;;;;;;;7.67;4.90;;;;;;;-2.44;83.17;98457.34;5058849;28;20212;-69
2022/01/13 02:32:58;;;;;;;6.60;4.50;;;;;;;-2.43;82.96;98459.91;5057522;28;20231;-69
2022/01/13 02:35:33;;;;;;;12.13;6.57;;;;;;;-2.21;82.43;98458.38;5058018;28;20237;-69
2022/01/13 02:38:02;;;;;;;9.27;5.63;;;;;;;-2.42;83.35;98452.13;5058266;28;20211;-68
2022/01/13 02:40:28;;;;;;;7.37;4.63;;;;;;;-2.43;82.75;98448.72;5058596;28;20750;-69
2022/01/13 02:42:55;;;;;;;6.43;4.17;;;;;;;-2.57;82.70;98445.69;5057655;28;20568;-69
2022/01/13 02:45:26;;;;;;;10.20;6.13;;;;;;;-2.38;82.04;98440.81;5058003;28;20228;-69
2022/01/13 02:48:13;;;;;;;7.97;4.93;;;;;;;-2.40;80.92;98439.16;5057846;28;20215;-69
2022/01/13 02:50:40;;;;;;;12.27;5.73;;;;;;;-2.69;84.07;98433.16;5058865;28;20215;-69
2022/01/13 02:53:08;;;;;;;4.47;3.83;;;;;;;-2.42;83.97;98436.63;5057121;28;20231;-68
2022/01/13 02:55:35;;;;;;;3.83;2.57;;;;;;;-2.53;82.05;98424.06;5057916;28;20277;-68
2022/01/13 02:58:02;;;;;;;6.20;4.27;;;;;;;-2.57;81.62;98417.31;5058765;28;20211;-69
2022/01/13 03:00:28;;;;;;;13.43;5.37;;;;;;;-2.48;80.92;98424.78;5058294;28;20282;-69
2022/01/13 03:02:55;;;;;;;15.57;6.23;;;;;;;-2.45;80.89;98414.38;5057329;28;20207;-69
2022/01/13 03:05:22;;;;;;;9.90;5.53;;;;;;;-2.47;80.74;98408.41;5056876;28;21156;-68
2022/01/13 03:07:49;;;;;;;9.33;5.10;;;;;;;-2.52;80.67;98407.69;5055353;28;20246;-69
2022/01/13 03:10:17;;;;;;;12.20;6.77;;;;;;;-2.37;81.45;98405.50;5057851;28;20257;-69
2022/01/13 03:12:45;;;;;;;11.67;4.40;;;;;;;-2.55;81.67;98397.47;5057216;28;20208;-69
2022/01/13 03:15:12;;;;;;;2.80;2.33;;;;;;;-2.51;82.41;98407.66;5057190;28;20202;-69
2022/01/13 03:17:38;;;;;;;17.27;8.03;;;;;;;-2.51;81.17;98404.22;5057584;28;20207;-69
2022/01/13 03:20:06;;;;;;;8.93;4.33;;;;;;;-2.61;82.30;98407.97;5057404;28;20208;-68
2022/01/13 03:22:33;;;;;;;16.50;6.93;;;;;;;-2.76;82.60;98406.69;5057699;28;20207;-69
2022/01/13 03:24:59;;;;;;;5.20;3.17;;;;;;;-2.58;82.32;98407.88;5057277;28;20200;-69
2022/01/13 03:27:34;;;;;;;7.83;5.27;;;;;;;-2.45;81.65;98411.81;5057972;28;20601;-69
2022/01/13 03:30:03;;;;;;;9.03;5.70;;;;;;;-2.48;81.88;98423.06;5056802;28;20298;-69
2022/01/13 03:32:30;;;;;;;10.83;5.97;;;;;;;-2.54;81.77;98423.25;5058406;28;20212;-70
2022/01/13 03:34:56;;;;;;;4.93;4.07;;;;;;;-2.63;81.92;98417.50;5057224;28;20227;-69
2022/01/13 03:37:23;;;;;;;11.83;4.97;;;;;;;-2.65;81.70;98419.28;5057620;28;20278;-69
2022/01/13 03:39:49;;;;;;;11.57;5.50;;;;;;;-2.59;82.14;98411.38;5057613;28;20227;-69
2022/01/13 03:42:16;;;;;;;5.40;4.57;;;;;;;-2.74;82.82;98417.81;5056722;28;20206;-69
2022/01/13 03:44:44;;;;;;;9.00;5.43;;;;;;;-2.71;82.03;98424.63;5057424;28;20203;-68
2022/01/13 03:47:10;;;;;;;8.47;3.77;;;;;;;-2.67;82.27;98431.38;5057551;28;20227;-69
2022/01/13 03:49:37;;;;;;;8.13;3.63;;;;;;;-2.61;81.96;98438.94;5057391;28;20212;-69
2022/01/13 03:52:42;;;;;;;4.70;3.73;;;;;;;-2.28;81.69;98431.88;5056875;28;20208;-68
2022/01/13 03:55:45;;;;;;;13.00;4.47;;;;;;;-2.21;81.34;98443.72;5056901;28;20229;-68
2022/01/13 03:58:49;;;;;;;12.73;2.60;;;;;;;-2.33;81.91;98445.81;5057101;28;20204;-69
2022/01/13 04:01:49;;;;;;;12.83;3.90;;;;;;;-2.37;81.85;98445.09;5057278;28;20713;-68
2022/01/13 04:04:17;;;;;;;6.13;3.03;;;;;;;-2.51;82.58;98432.63;5056614;28;20215;-69
2022/01/13 04:06:45;;;;;;;6.43;4.23;;;;;;;-2.52;82.46;98423.19;5056682;28;21178;-68
2022/01/13 04:09:30;;;;;;;14.53;5.20;;;;;;;-2.48;81.56;98415.31;5058814;28;20212;-68
2022/01/13 04:11:58;;;;;;;7.33;2.83;;;;;;;-2.64;81.25;98415.81;5056326;28;20265;-69
2022/01/13 04:14:30;;;;;;;12.93;5.90;;;;;;;-2.67;81.82;98409.00;5056039;28;20227;-69
2022/01/13 04:16:57;;;;;;;3.83;3.43;;;;;;;-2.56;81.85;98406.94;5056974;28;20645;-69
2022/01/13 04:19:25;;;;;;;7.50;3.17;;;;;;;-2.90;82.13;98406.25;5057166;28;20217;-70
2022/01/13 04:21:51;;;;;;;3.93;3.23;;;;;;;-2.69;81.24;98404.78;5056964;28;21129;-68
2022/01/13 04:24:18;;;;;;;6.90;4.60;;;;;;;-2.64;81.14;98410.66;5056852;28;20208;-69
2022/01/13 04:26:45;;;;;;;16.83;4.87;;;;;;;-2.61;81.19;98411.41;5056336;28;20228;-69
2022/01/13 04:29:20;;;;;;;5.30;4.27;;;;;;;-2.67;81.11;98410.72;5056990;28;20217;-69
2022/01/13 04:31:50;;;;;;;14.17;7.97;;;;;;;-2.66;81.56;98404.69;5061524;28;20243;-69
2022/01/13 04:34:18;;;;;;;8.07;3.50;;;;;;;-2.67;81.77;98398.69;5060521;28;20230;-70
2022/01/13 04:36:46;;;;;;;12.70;5.30;;;;;;;-2.54;82.01;98401.75;5060931;28;20694;-68
2022/01/13 04:39:15;;;;;;;7.60;4.43;;;;;;;-2.52;81.52;98389.63;5060618;28;20230;-68
2022/01/13 04:41:43;;;;;;;13.37;4.63;;;;;;;-2.62;80.80;98390.78;5060979;28;20214;-68
2022/01/13 04:44:13;;;;;;;10.83;5.57;;;;;;;-2.71;80.75;98397.09;5059783;28;20280;-69
2022/01/13 04:46:40;;;;;;;8.00;3.30;;;;;;;-2.70;80.09;98398.78;5060738;28;20228;-69
2022/01/13 04:49:08;;;;;;;4.20;3.80;;;;;;;-2.71;80.31;98399.69;5060933;28;20206;-69
2022/01/13 04:51:34;;;;;;;7.93;3.93;;;;;;;-2.74;80.50;98409.22;5060416;28;21280;-69
2022/01/13 04:54:03;;;;;;;6.07;4.63;;;;;;;-2.71;81.30;98417.72;5059518;28;20223;-69
2022/01/13 04:56:32;;;;;;;8.30;5.47;;;;;;;-2.93;80.94;98416.66;5060742;28;20235;-68
2022/01/13 04:58:59;;;;;;;6.00;5.33;;;;;;;-2.80;81.00;98415.41;5060211;28;20651;-69
2022/01/13 05:01:26;;;;;;;5.30;4.80;;;;;;;-2.86;81.68;98427.66;5059966;28;20211;-69
2022/01/13 05:03:52;;;;;;;5.20;3.20;;;;;;;-2.90;81.09;98438.94;5059985;28;20208;-69
2022/01/13 05:06:19;;;;;;;15.87;5.93;;;;;;;-2.87;80.62;98444.00;5059518;28;20239;-69
2022/01/13 05:08:46;;;;;;;9.77;4.43;;;;;;;-2.88;80.54;98442.31;5060321;28;20238;-69
2022/01/13 05:11:14;;;;;;;5.70;2.90;;;;;;;-2.63;80.46;98440.75;5060849;28;20215;-69
2022/01/13 05:13:40;;;;;;;6.33;4.90;;;;;;;-2.81;80.91;98446.44;5059438;28;20211;-69
2022/01/13 05:16:13;;;;;;;5.00;4.07;;;;;;;-2.77;81.14;98441.13;5059572;28;20228;-69
2022/01/13 05:18:47;;;;;;;5.07;4.20;;;;;;;-2.87;81.69;98442.25;5061008;28;20202;-69
2022/01/13 05:21:22;;;;;;;3.70;2.80;;;;;;;-2.87;81.84;98449.16;5060260;28;20212;-69
2022/01/13 05:23:49;;;;;;;12.20;6.13;;;;;;;-2.63;82.29;98451.06;5059465;28;20216;-69
2022/01/13 05:26:16;;;;;;;11.30;3.53;;;;;;;-2.55;82.48;98447.34;5060225;28;20280;-69
2022/01/13 05:28:43;;;;;;;9.53;5.67;;;;;;;-2.59;82.17;98450.91;5059822;28;20210;-69
2022/01/13 05:31:10;;;;;;;8.67;4.33;;;;;;;-2.50;83.04;98442.91;5060079;28;20212;-69
2022/01/13 05:33:36;;;;;;;10.83;6.23;;;;;;;-2.53;85.43;98436.97;5059116;28;20212;-68
2022/01/13 05:36:03;;;;;;;3.67;3.40;;;;;;;-2.45;86.74;98442.78;5059978;28;21097;-68
2022/01/13 05:38:29;;;;;;;8.80;4.37;;;;;;;-2.27;85.81;98432.72;5059619;28;20247;-69
2022/01/13 05:40:58;;;;;;;7.07;5.10;;;;;;;-2.22;86.90;98416.19;5059448;28;20211;-69
2022/01/13 05:43:26;;;;;;;8.27;5.33;;;;;;;-2.09;87.39;98411.50;5058786;28;20215;-68
2022/01/13 05:45:52;;;;;;;11.37;6.57;;;;;;;-2.26;87.55;98409.44;5059635;28;20219;-69
2022/01/13 05:48:19;;;;;;;7.93;6.90;;;;;;;-2.00;88.17;98414.63;5060231;28;20205;-69
2022/01/13 05:50:46;;;;;;;11.77;6.53;;;;;;;-1.92;87.77;98420.41;5059987;28;20210;-69
2022/01/13 05:53:12;;;;;;;12.63;6.27;;;;;;;-2.09;89.43;98419.25;5059153;28;20217;-69
2022/01/13 05:55:39;;;;;;;16.33;6.03;;;;;;;-1.95;89.64;98424.81;5058811;28;20693;-69
2022/01/13 05:58:06;;;;;;;10.20;4.90;;;;;;;-1.91;89.87;98424.66;5059696;28;20232;-69
2022/01/13 06:00:34;;;;;;;13.77;5.10;;;;;;;-2.14;91.15;98434.91;5059424;28;20210;-69
2022/01/13 06:03:01;;;;;;;9.43;6.60;;;;;;;-2.21;91.76;98438.53;5058687;28;20212;-69
2022/01/13 06:05:28;;;;;;;5.53;3.23;;;;;;;-2.32;92.61;98450.09;5058980;28;20224;-68
2022/01/13 06:07:54;;;;;;;15.97;7.20;;;;;;;-2.33;92.37;98449.25;5059838;28;20211;-69
2022/01/13 06:10:21;;;;;;;12.93;5.90;;;;;;;-2.25;93.03;98447.28;5059333;28;20204;-69
2022/01/13 06:12:49;;;;;;;9.77;5.50;;;;;;;-2.49;93.69;98446.34;5058716;28;20210;-69
2022/01/13 06:15:19;;;;;;;15.57;5.53;;;;;;;-2.07;93.37;98446.72;5058697;28;20231;-69
2022/01/13 06:17:48;;;;;;;13.80;5.40;;;;;;;-1.88;92.60;98437.50;5059951;28;20205;-69
2022/01/13 06:20:16;;;;;;;13.23;8.27;;;;;;;-2.16;92.68;98441.84;5059744;28;20218;-69
2022/01/13 06:22:45;;;;;;;16.83;4.80;;;;;;;-2.06;92.51;98447.53;5058894;28;20737;-69
2022/01/13 06:25:13;;;;;;;15.07;6.20;;;;;;;-1.91;92.77;98453.06;5058707;28;20214;-69
2022/01/13 06:27:41;;;;;;;13.17;7.23;;;;;;;-1.92;92.20;98446.25;5059169;28;20216;-69
2022/01/13 06:30:10;;;;;;;8.03;5.67;;;;;;;-1.89;92.83;98446.13;5059715;28;20203;-69
2022/01/13 06:32:38;;;;;;;5.97;5.30;;;;;;;-1.88;92.35;98452.13;5056025;28;20297;-69
2022/01/13 06:35:07;;;;;;;12.20;6.53;;;;;;;-1.87;92.53;98454.69;5058116;28;20236;-70
2022/01/13 06:37:34;;;;;;;11.20;3.97;;;;;;;-1.95;92.89;98461.81;5057960;28;20247;-69
2022/01/13 06:40:02;;;;;;;7.00;5.37;;;;;;;-1.79;92.61;98463.03;5057417;28;20231;-69
2022/01/13 06:42:28;;;;;;;10.83;6.47;;;;;;;-1.85;92.19;98472.72;5057562;28;20242;-69
2022/01/13 06:44:55;;;;;;;9.00;6.07;;;;;;;-1.65;91.75;98472.03;5058061;28;20291;-69
2022/01/13 06:47:21;;;;;;;9.20;5.97;;;;;;;-1.61;91.36;98481.38;5058088;28;20228;-69
2022/01/13 06:49:48;;;;;;;10.30;4.07;;;;;;;-1.61;91.03;98481.38;5057383;28;20211;-69
2022/01/13 06:52:16;;;;;;;7.57;5.70;;;;;;;-1.52;91.19;98483.66;5057313;28;20208;-69
2022/01/13 06:54:43;;;;;;;6.10;3.77;;;;;;;-1.60;90.54;98485.66;5058033;28;20318;-69
2022/01/13 06:57:09;;;;;;;5.27;4.07;;;;;;;-1.61;90.70;98485.69;5057975;28;20223;-69
2022/01/13 06:59:36;;;;;;;21.90;8.40;;;;;;;-1.65;90.94;98487.53;5058413;28;20208;-69
2022/01/13 07:02:03;;;;;;;12.63;4.03;;;;;;;-1.71;91.25;98490.31;5057770;28;20732;-69
2022/01/13 07:04:30;;;;;;;5.93;4.47;;;;;;;-1.64;91.09;98491.81;5057455;28;20197;-69
2022/01/13 07:06:57;;;;;;;8.17;4.83;;;;;;;-1.67;91.53;98499.69;5057886;28;20224;-69
2022/01/13 07:09:24;;;;;;;10.20;4.80;;;;;;;-1.63;91.30;98493.50;5058228;28;20219;-69
2022/01/13 07:11:51;;;;;;;8.97;5.33;;;;;;;-1.73;91.88;98496.44;5058560;28;20201;-69
2022/01/13 07:14:18;;;;;;;16.07;6.30;;;;;;;-1.81;92.30;98495.81;5056531;28;21039;-69
2022/01/13 07:16:46;;;;;;;12.57;5.97;;;;;;;-1.73;92.34;98499.03;5058057;28;20980;-69
2022/01/13 07:19:14;;;;;;;8.57;5.80;;;;;;;-1.73;91.98;98497.28;5057992;28;20253;-69
2022/01/13 07:21:41;;;;;;;10.33;5.53;;;;;;;-1.60;91.95;98495.16;5057367;28;20322;-69
2022/01/13 07:24:08;;;;;;;13.23;5.67;;;;;;;-1.63;90.85;98500.41;5056902;28;20200;-69
2022/01/13 07:26:36;;;;;;;7.83;5.10;;;;;;;-1.55;91.19;98499.28;5057969;28;20227;-69
2022/01/13 07:29:04;;;;;;;16.27;8.00;;;;;;;-1.59;90.56;98508.03;5056689;28;20203;-69
2022/01/13 07:31:30;;;;;;;8.30;5.80;;;;;;;-1.78;90.41;98506.06;5057604;28;20197;-69
2022/01/13 07:33:57;;;;;;;8.87;6.10;;;;;;;-1.74;90.79;98507.66;5056585;28;20764;-69
2022/01/13 07:36:23;;;;;;;19.53;6.37;;;;;;;-1.69;90.60;98516.13;5057171;28;20730;-69
2022/01/13 07:38:50;;;;;;;10.13;4.17;;;;;;;-1.56;90.21;98518.25;5057094;28;20211;-69
2022/01/13 07:41:17;;;;;;;10.13;7.40;;;;;;;-1.52;90.28;98517.25;5058216;28;20212;-69
2022/01/13 07:43:48;;;;;;;10.93;5.93;;;;;;;-1.35;90.92;98519.31;5056153;28;20295;-69
2022/01/13 07:46:15;;;;;;;9.73;5.77;;;;;;;-1.23;89.28;98516.28;5057647;28;20712;-69
2022/01/13 07:48:42;;;;;;;9.07;5.97;;;;;;;-1.35;89.61;98532.22;5063044;28;20220;-69
2022/01/13 07:51:08;;;;;;;10.87;7.43;;;;;;;-1.49;90.10;98527.53;5064889;28;20212;-69
2022/01/13 07:53:35;;;;;;;8.70;5.80;;;;;;;-1.31;89.50;98515.72;5064546;28;20205;-70
2022/01/13 07:56:01;;;;;;;14.43;9.00;;;;;;;-1.55;89.68;98516.53;5065089;28;20236;-69
2022/01/13 07:58:28;;;;;;;11.63;4.97;;;;;;;-1.55;90.33;98524.28;5072001;28;21045;-69
2022/01/13 08:00:56;;;;;;;12.93;7.30;;;;;;;-1.43;90.77;98526.47;5065282;28;20216;-69
2022/01/13 08:03:22;;;;;;;13.83;6.00;;;;;;;-1.46;91.31;98530.00;5064324;28;20601;-69
2022/01/13 08:05:49;;;;;;;12.33;8.43;;;;;;;-1.46;90.80;98526.59;5065800;28;20216;-69
2022/01/13 08:08:15;;;;;;;7.80;5.47;;;;;;;-1.58;91.97;98532.13;5065070;28;20211;-69
2022/01/13 08:10:42;;;;;;;14.60;5.77;;;;;;;-1.61;91.40;98527.06;5065099;28;20208;-69
2022/01/13 08:13:08;;;;;;;18.47;6.77;;;;;;;-1.50;90.81;98528.41;5065464;28;20199;-70
2022/01/13 08:15:36;;;;;;;11.83;5.93;;;;;;;-1.32;91.00;98522.63;5065492;28;20231;-69
2022/01/13 08:20:48;;;;;;;11.23;5.13;;;;;;;-1.32;90.55;98534.69;5065611;28;20201;-69
2022/01/13 08:23:15;;;;;;;10.07;5.67;;;;;;;-1.22;90.57;98530.03;5065896;28;20225;-69
2022/01/13 08:25:41;;;;;;;10.03;6.10;;;;;;;-1.19;89.44;98529.09;5066174;28;20220;-69
2022/01/13 08:28:08;;;;;;;11.30;5.73;;;;;;;-1.20;89.72;98529.97;5065122;28;20196;-68
2022/01/13 08:30:35;;;;;;;10.33;4.03;;;;;;;-1.44;90.37;98529.94;5065757;28;20298;-69
2022/01/13 08:33:01;;;;;;;9.10;5.73;;;;;;;-1.22;90.09;98521.44;5066623;28;20200;-69
2022/01/13 08:35:29;;;;;;;13.57;5.77;;;;;;;-1.01;90.27;98510.38;5065177;28;20216;-69
2022/01/13 08:37:57;;;;;;;10.10;5.43;;;;;;;-1.35;90.88;98521.88;5065763;28;20736;-69
2022/01/13 08:40:24;;;;;;;11.37;5.53;;;;;;;-1.12;90.64;98502.97;5064575;28;20253;-69
2022/01/13 08:42:50;;;;;;;21.40;7.57;;;;;;;-1.13;90.41;98493.50;5066261;28;20232;-69
2022/01/13 08:45:17;;;;;;;6.63;4.37;;;;;;;-1.11;90.29;98503.81;5065864;28;20196;-69
2022/01/13 08:47:44;;;;;;;9.33;4.00;;;;;;;-1.01;89.75;98503.44;5065277;28;20238;-69
2022/01/13 08:50:11;;;;;;;11.27;4.67;;;;;;;-1.04;89.77;98507.88;5065678;28;20211;-69
2022/01/13 08:52:39;;;;;;;27.77;7.87;;;;;;;-0.94;90.49;98517.88;5064687;28;20668;-69
2022/01/13 08:55:06;;;;;;;13.97;7.63;;;;;;;-0.81;90.24;98511.38;5065675;28;20221;-69
2022/01/13 08:57:33;;;;;;;6.63;5.67;;;;;;;-0.64;89.27;98509.00;5066118;28;20212;-69
2022/01/13 09:00:00;;;;;;;14.77;6.93;;;;;;;-0.88;89.68;98515.06;5065633;28;20457;-69
2022/01/13 09:02:30;;;;;;;19.50;7.90;;;;;;;-0.90;89.56;98523.78;5066084;28;20562;-69
2022/01/13 09:04:56;;;;;;;15.93;6.60;;;;;;;-0.89;90.31;98520.28;5066049;28;20206;-69
2022/01/13 09:07:23;;;;;;;11.80;6.67;;;;;;;-0.92;89.56;98517.81;5067346;28;20216;-69
2022/01/13 09:09:51;;;;;;;15.10;5.47;;;;;;;-0.97;89.67;98524.88;5066194;28;20841;-71
2022/01/13 09:12:17;;;;;;;31.50;6.17;;;;;;;-0.93;90.13;98524.75;5064839;28;20211;-69
2022/01/13 09:14:44;;;;;;;21.50;6.53;;;;;;;-0.86;89.92;98523.63;5066395;28;20579;-69
2022/01/13 09:17:19;;;;;;;9.63;5.40;;;;;;;-0.74;89.34;98527.53;5067846;28;20700;-69
2022/01/13 09:19:45;;;;;;;9.20;6.20;;;;;;;-0.71;89.16;98540.34;5069959;28;20199;-69
2022/01/13 09:22:12;;;;;;;20.67;6.83;;;;;;;-0.86;89.22;98533.97;5068551;28;20203;-68
2022/01/13 09:24:39;;;;;;;18.27;7.20;;;;;;;-0.74;90.16;98541.28;5072423;28;20669;-69
2022/01/13 09:27:07;;;;;;;15.03;7.57;;;;;;;-0.56;89.50;98544.09;5071393;28;20575;-69
2022/01/13 09:29:33;;;;;;;14.53;6.77;;;;;;;-0.98;90.97;98552.50;5070346;28;20300;-69
2022/01/13 09:32:00;;;;;;;24.40;7.47;;;;;;;-0.85;90.81;98550.31;5072043;28;20201;-69
2022/01/13 09:34:26;;;;;;;12.20;7.50;;;;;;;-0.75;90.32;98547.41;5064970;28;20200;-69
2022/01/13 09:36:53;;;;;;;8.57;5.47;;;;;;;-0.49;89.58;98544.72;5059158;28;20225;-68
2022/01/13 09:39:19;;;;;;;8.70;5.33;;;;;;;-0.30;88.98;98543.16;5059646;28;20226;-68
2022/01/13 09:41:47;;;;;;;21.87;6.63;;;;;;;-0.44;89.14;98540.22;5059650;28;20197;-69
2022/01/13 09:44:15;;;;;;;7.73;5.80;;;;;;;-0.31;88.89;98533.69;5059515;28;20204;-68
2022/01/13 09:46:43;;;;;;;16.63;7.23;;;;;;;-0.17;88.88;98539.22;5059041;28;20566;-69
2022/01/13 09:49:09;;;;;;;11.87;6.57;;;;;;;-0.26;87.96;98531.78;5059847;28;20315;-69
2022/01/13 09:51:38;;;;;;;11.70;7.37;;;;;;;-0.05;87.88;98531.84;5059175;28;20214;-69
2022/01/13 09:54:05;;;;;;;12.87;7.37;;;;;;;-0.08;88.35;98525.91;5058859;28;20210;-69
2022/01/13 09:56:34;;;;;;;16.27;7.20;;;;;;;-0.06;88.58;98535.31;5059373;28;20231;-69
2022/01/13 09:59:00;;;;;;;16.27;8.20;;;;;;;-0.05;88.20;98536.16;5059887;28;20200;-69
2022/01/13 10:01:28;;;;;;;13.43;7.83;;;;;;;0.05;88.11;98528.84;5059334;28;20911;-69
2022/01/13 10:03:55;;;;;;;18.70;7.87;;;;;;;-0.11;87.38;98528.63;5058237;28;20207;-69
2022/01/13 10:06:21;;;;;;;15.53;6.87;;;;;;;0.00;87.01;98519.56;5058855;28;20212;-69
2022/01/13 10:08:50;;;;;;;15.20;4.87;;;;;;;0.11;87.33;98512.19;5059273;28;20200;-69
2022/01/13 10:11:27;;;;;;;21.87;7.33;;;;;;;0.36;87.33;98513.78;5058688;28;20197;-69
2022/01/13 10:14:14;;;;;;;16.30;7.10;;;;;;;0.46;86.78;98503.88;5058272;28;20210;-69
2022/01/13 10:16:49;;;;;;;26.57;8.27;;;;;;;0.59;87.06;98508.53;5058359;28;20716;-69
2022/01/13 10:19:27;;;;;;;33.30;12.07;;;;;;;0.93;86.00;98507.06;5058785;28;20291;-69
2022/01/13 10:21:56;;;;;;;21.83;9.63;;;;;;;0.51;85.86;98501.94;5058830;28;20201;-69
2022/01/13 10:24:25;;;;;;;17.97;7.87;;;;;;;0.89;85.35;98500.31;5056228;28;20626;-69
2022/01/13 10:27:00;;;;;;;10.13;5.37;;;;;;;0.88;85.73;98495.16;5057789;28;20221;-69
2022/01/13 10:29:37;;;;;;;17.23;7.80;;;;;;;0.77;87.40;98494.78;5054535;28;20203;-69
2022/01/13 10:32:06;;;;;;;8.90;5.47;;;;;;;0.62;87.07;98496.28;5057365;28;20196;-69
2022/01/13 10:34:35;;;;;;;19.33;5.53;;;;;;;0.49;87.84;98502.00;5057499;28;20204;-69
2022/01/13 10:37:10;;;;;;;14.87;8.03;;;;;;;0.80;85.96;98499.84;5057705;28;20743;-69
2022/01/13 10:40:02;;;;;;;20.17;5.80;;;;;;;0.87;85.93;98496.94;5057719;28;20208;-69
2022/01/13 10:43:06;;;;;;;20.77;8.27;;;;;;;0.75;84.95;98491.41;5057417;28;20203;-69
2022/01/13 10:45:35;;;;;;;25.43;8.47;;;;;;;0.74;84.73;98494.94;5057733;28;20286;-69
2022/01/13 10:48:04;;;;;;;12.63;6.13;;;;;;;0.84;86.30;98493.63;5057737;28;20201;-69
2022/01/13 10:50:35;;;;;;;33.03;8.67;;;;;;;0.87;85.95;98503.88;5057444;28;20215;-69
2022/01/13 10:53:04;;;;;;;12.97;6.40;;;;;;;0.68;87.40;98490.81;5056534;28;20212;-69
2022/01/13 10:55:37;;;;;;;13.97;7.63;;;;;;;0.89;86.12;98491.69;5057677;28;20748;-69
2022/01/13 10:58:03;;;;;;;26.27;8.53;;;;;;;0.89;85.10;98491.69;5057692;28;20204;-69
2022/01/13 11:00:33;;;;;;;11.60;6.07;;;;;;;0.98;85.33;98493.88;5058073;28;20200;-69
2022/01/13 11:03:06;;;;;;;16.00;4.80;;;;;;;0.96;84.76;98490.53;5057122;28;20543;-69
2022/01/13 11:05:35;;;;;;;10.37;5.63;;;;;;;0.93;86.18;98488.03;5057102;28;20760;-69
2022/01/13 11:08:05;;;;;;;15.83;6.23;;;;;;;1.05;86.10;98490.13;5057786;28;20208;-68
2022/01/13 11:10:31;;;;;;;12.07;6.87;;;;;;;0.73;86.07;98491.47;5057944;28;20196;-69
2022/01/13 11:13:00;;;;;;;20.17;7.20;;;;;;;0.79;86.01;98504.19;5057282;28;20204;-69
2022/01/13 11:15:28;;;;;;;20.57;7.80;;;;;;;0.64;87.28;98493.63;5057416;28;20243;-68
2022/01/13 11:17:56;;;;;;;20.03;7.90;;;;;;;0.43;88.93;98496.22;5058139;28;20329;-68
2022/01/13 11:20:25;;;;;;;14.90;5.63;;;;;;;0.75;88.66;98496.59;5057479;28;20208;-68
2022/01/13 11:22:53;;;;;;;8.40;4.10;;;;;;;0.50;90.83;98500.25;5056660;28;20209;-68
2022/01/13 11:25:24;;;;;;;29.80;6.70;;;;;;;0.42;90.88;98503.16;5057106;28;20228;-69
2022/01/13 11:27:52;;;;;;;13.00;6.37;;;;;;;0.66;89.48;98507.34;5055293;28;20961;-69
2022/01/13 11:30:21;;;;;;;8.63;4.70;;;;;;;0.38;90.91;98500.75;5057277;28;20204;-69
2022/01/13 11:32:48;;;;;;;24.80;7.57;;;;;;;0.02;91.25;98504.78;5057059;28;20277;-69
2022/01/13 11:35:16;;;;;;;11.37;5.87;;;;;;;0.22;91.00;98508.28;5057402;28;20201;-69
2022/01/13 11:37:45;;;;;;;16.77;6.93;;;;;;;0.36;90.54;98498.22;5056968;28;20717;-68
2022/01/13 11:40:36;;;;;;;12.47;5.40;;;;;;;0.90;88.51;98493.38;5056639;28;20204;-69